sensor_id;sensor_type;location;lat;lon;timestamp;P1;durP1;ratioP1;P2;durP2;ratioP2
54555;SDS011;57291;37.520;15.106;2023-04-03T00:00:55;12.25;;;4.68;;
54555;SDS011;57291;37.520;15.106;2023-04-03T00:03:25;12.98;;;4.70;;
54555;SDS011;57291;37.520;15.106;2023-04-03T00:05:53;17.90;;;5.68;;
54555;SDS011;57291;37.520;15.106;2023-04-03T00:08:20;18.35;;;5.63;;
54555;SDS011;57291;37.520;15.106;2023-04-03T00:10:47;23.40;;;6.78;;
54555;SDS011;57291;37.520;15.106;2023-04-03T00:13:16;14.52;;;6.72;;
54555;SDS011;57291;37.520;15.106;2023-04-03T00:15:43;20.40;;;6.53;;
54555;SDS011;57291;37.520;15.106;2023-04-03T00:18:10;11.80;;;5.03;;
54555;SDS011;57291;37.520;15.106;2023-04-03T00:20:38;15.68;;;5.30;;
54555;SDS011;57291;37.520;15.106;2023-04-03T00:23:05;14.13;;;5.68;;
54555;SDS011;57291;37.520;15.106;2023-04-03T00:25:33;13.85;;;5.22;;
54555;SDS011;57291;37.520;15.106;2023-04-03T00:28:00;17.25;;;5.82;;
54555;SDS011;57291;37.520;15.106;2023-04-03T00:30:27;15.30;;;7.07;;
54555;SDS011;57291;37.520;15.106;2023-04-03T00:32:54;24.83;;;9.18;;
54555;SDS011;57291;37.520;15.106;2023-04-03T00:35:22;25.98;;;8.38;;
54555;SDS011;57291;37.520;15.106;2023-04-03T00:37:51;17.45;;;8.13;;
54555;SDS011;57291;37.520;15.106;2023-04-03T00:40:20;24.85;;;10.05;;
54555;SDS011;57291;37.520;15.106;2023-04-03T00:42:54;26.13;;;8.57;;
54555;SDS011;57291;37.520;15.106;2023-04-03T00:47:54;24.33;;;8.75;;
54555;SDS011;57291;37.520;15.106;2023-04-03T00:50:22;20.02;;;8.38;;
54555;SDS011;57291;37.520;15.106;2023-04-03T00:52:50;19.40;;;6.78;;
54555;SDS011;57291;37.520;15.106;2023-04-03T00:55:18;19.95;;;5.93;;
54555;SDS011;57291;37.520;15.106;2023-04-03T00:57:47;18.40;;;7.15;;
54555;SDS011;57291;37.520;15.106;2023-04-03T01:00:16;14.82;;;5.90;;
54555;SDS011;57291;37.520;15.106;2023-04-03T01:02:49;12.55;;;5.25;;
54555;SDS011;57291;37.520;15.106;2023-04-03T01:05:19;14.95;;;5.03;;
54555;SDS011;57291;37.520;15.106;2023-04-03T01:07:48;17.83;;;5.25;;
54555;SDS011;57291;37.520;15.106;2023-04-03T01:10:18;20.00;;;5.90;;
54555;SDS011;57291;37.520;15.106;2023-04-03T01:12:48;17.30;;;4.80;;
54555;SDS011;57291;37.520;15.106;2023-04-03T01:15:18;12.43;;;4.30;;
54555;SDS011;57291;37.520;15.106;2023-04-03T01:17:52;12.82;;;4.03;;
54555;SDS011;57291;37.520;15.106;2023-04-03T01:25:40;16.70;;;5.38;;
54555;SDS011;57291;37.520;15.106;2023-04-03T01:28:17;11.15;;;4.20;;
54555;SDS011;57291;37.520;15.106;2023-04-03T01:31:13;16.33;;;4.30;;
54555;SDS011;57291;37.520;15.106;2023-04-03T01:33:48;15.02;;;3.30;;
54555;SDS011;57291;37.520;15.106;2023-04-03T01:36:26;9.70;;;3.42;;
54555;SDS011;57291;37.520;15.106;2023-04-03T01:38:56;10.02;;;3.10;;
54555;SDS011;57291;37.520;15.106;2023-04-03T01:41:26;4.70;;;2.30;;
54555;SDS011;57291;37.520;15.106;2023-04-03T01:44:00;8.82;;;2.38;;
54555;SDS011;57291;37.520;15.106;2023-04-03T01:46:28;5.13;;;1.88;;
54555;SDS011;57291;37.520;15.106;2023-04-03T01:48:55;7.68;;;1.90;;
54555;SDS011;57291;37.520;15.106;2023-04-03T01:51:22;5.57;;;1.70;;
54555;SDS011;57291;37.520;15.106;2023-04-03T01:53:50;5.97;;;1.83;;
54555;SDS011;57291;37.520;15.106;2023-04-03T01:56:18;6.32;;;1.83;;
54555;SDS011;57291;37.520;15.106;2023-04-03T01:58:45;6.28;;;2.35;;
54555;SDS011;57291;37.520;15.106;2023-04-03T02:01:12;6.50;;;2.13;;
54555;SDS011;57291;37.520;15.106;2023-04-03T02:03:40;7.70;;;2.30;;
54555;SDS011;57291;37.520;15.106;2023-04-03T02:06:07;7.00;;;2.50;;
54555;SDS011;57291;37.520;15.106;2023-04-03T02:08:34;4.30;;;1.98;;
54555;SDS011;57291;37.520;15.106;2023-04-03T02:11:01;8.45;;;2.38;;
54555;SDS011;57291;37.520;15.106;2023-04-03T02:13:28;9.00;;;2.92;;
54555;SDS011;57291;37.520;15.106;2023-04-03T02:15:56;3.90;;;2.33;;
54555;SDS011;57291;37.520;15.106;2023-04-03T02:18:23;5.60;;;2.35;;
54555;SDS011;57291;37.520;15.106;2023-04-03T02:20:50;7.82;;;2.78;;
54555;SDS011;57291;37.520;15.106;2023-04-03T02:23:17;6.82;;;2.47;;
54555;SDS011;57291;37.520;15.106;2023-04-03T02:25:44;5.85;;;2.58;;
54555;SDS011;57291;37.520;15.106;2023-04-03T02:28:11;8.82;;;2.80;;
54555;SDS011;57291;37.520;15.106;2023-04-03T02:30:39;11.70;;;3.40;;
54555;SDS011;57291;37.520;15.106;2023-04-03T02:33:06;6.35;;;2.90;;
54555;SDS011;57291;37.520;15.106;2023-04-03T02:35:33;10.73;;;4.03;;
54555;SDS011;57291;37.520;15.106;2023-04-03T02:38:01;11.55;;;4.07;;
54555;SDS011;57291;37.520;15.106;2023-04-03T02:40:28;11.38;;;4.30;;
54555;SDS011;57291;37.520;15.106;2023-04-03T02:42:55;9.90;;;4.32;;
54555;SDS011;57291;37.520;15.106;2023-04-03T02:45:23;9.52;;;4.00;;
54555;SDS011;57291;37.520;15.106;2023-04-03T02:47:51;7.53;;;3.45;;
54555;SDS011;57291;37.520;15.106;2023-04-03T02:50:18;7.45;;;3.03;;
54555;SDS011;57291;37.520;15.106;2023-04-03T02:52:45;9.43;;;2.80;;
54555;SDS011;57291;37.520;15.106;2023-04-03T02:55:14;5.10;;;2.72;;
54555;SDS011;57291;37.520;15.106;2023-04-03T02:57:44;8.60;;;2.83;;
54555;SDS011;57291;37.520;15.106;2023-04-03T03:00:12;6.50;;;2.50;;
54555;SDS011;57291;37.520;15.106;2023-04-03T03:02:39;6.45;;;2.13;;
54555;SDS011;57291;37.520;15.106;2023-04-03T03:05:07;8.18;;;2.50;;
54555;SDS011;57291;37.520;15.106;2023-04-03T03:07:34;8.85;;;3.40;;
54555;SDS011;57291;37.520;15.106;2023-04-03T03:10:02;6.68;;;2.65;;
54555;SDS011;57291;37.520;15.106;2023-04-03T03:12:29;6.03;;;2.25;;
54555;SDS011;57291;37.520;15.106;2023-04-03T03:14:58;6.80;;;2.00;;
54555;SDS011;57291;37.520;15.106;2023-04-03T03:17:26;6.13;;;2.70;;
54555;SDS011;57291;37.520;15.106;2023-04-03T03:19:54;6.53;;;2.47;;
54555;SDS011;57291;37.520;15.106;2023-04-03T03:22:22;7.75;;;3.00;;
54555;SDS011;57291;37.520;15.106;2023-04-03T03:24:49;7.05;;;3.25;;
54555;SDS011;57291;37.520;15.106;2023-04-03T03:27:16;8.23;;;3.55;;
54555;SDS011;57291;37.520;15.106;2023-04-03T03:29:44;11.27;;;3.80;;
54555;SDS011;57291;37.520;15.106;2023-04-03T03:32:12;9.73;;;3.58;;
54555;SDS011;57291;37.520;15.106;2023-04-03T03:34:39;7.88;;;3.20;;
54555;SDS011;57291;37.520;15.106;2023-04-03T03:37:06;5.95;;;2.60;;
54555;SDS011;57291;37.520;15.106;2023-04-03T03:39:34;6.45;;;2.85;;
54555;SDS011;57291;37.520;15.106;2023-04-03T03:42:01;5.35;;;2.75;;
54555;SDS011;57291;37.520;15.106;2023-04-03T03:44:28;5.88;;;2.63;;
54555;SDS011;57291;37.520;15.106;2023-04-03T03:46:56;6.63;;;2.47;;
54555;SDS011;57291;37.520;15.106;2023-04-03T03:49:24;9.00;;;2.30;;
54555;SDS011;57291;37.520;15.106;2023-04-03T03:51:51;8.05;;;2.50;;
54555;SDS011;57291;37.520;15.106;2023-04-03T03:54:18;6.13;;;2.25;;
54555;SDS011;57291;37.520;15.106;2023-04-03T03:56:48;6.20;;;2.35;;
54555;SDS011;57291;37.520;15.106;2023-04-03T03:59:15;8.45;;;2.88;;
54555;SDS011;57291;37.520;15.106;2023-04-03T04:01:43;6.05;;;2.28;;
54555;SDS011;57291;37.520;15.106;2023-04-03T04:04:11;4.97;;;2.15;;
54555;SDS011;57291;37.520;15.106;2023-04-03T04:06:38;4.82;;;1.98;;
54555;SDS011;57291;37.520;15.106;2023-04-03T04:09:08;7.00;;;1.90;;
54555;SDS011;57291;37.520;15.106;2023-04-03T04:11:36;3.58;;;2.13;;
54555;SDS011;57291;37.520;15.106;2023-04-03T04:14:03;6.05;;;2.60;;
54555;SDS011;57291;37.520;15.106;2023-04-03T04:16:31;3.65;;;1.85;;
54555;SDS011;57291;37.520;15.106;2023-04-03T04:19:04;5.28;;;1.95;;
54555;SDS011;57291;37.520;15.106;2023-04-03T04:21:36;5.13;;;2.08;;
54555;SDS011;57291;37.520;15.106;2023-04-03T04:24:03;4.03;;;1.95;;
54555;SDS011;57291;37.520;15.106;2023-04-03T04:26:30;6.75;;;2.28;;
54555;SDS011;57291;37.520;15.106;2023-04-03T04:28:58;4.40;;;2.20;;
54555;SDS011;57291;37.520;15.106;2023-04-03T04:31:25;6.22;;;2.55;;
54555;SDS011;57291;37.520;15.106;2023-04-03T04:33:52;5.38;;;2.22;;
54555;SDS011;57291;37.520;15.106;2023-04-03T04:36:20;4.40;;;2.47;;
54555;SDS011;57291;37.520;15.106;2023-04-03T04:38:48;5.35;;;2.58;;
54555;SDS011;57291;37.520;15.106;2023-04-03T04:41:15;4.18;;;2.80;;
54555;SDS011;57291;37.520;15.106;2023-04-03T04:43:43;5.55;;;2.70;;
54555;SDS011;57291;37.520;15.106;2023-04-03T04:46:10;5.38;;;2.58;;
54555;SDS011;57291;37.520;15.106;2023-04-03T04:48:47;8.35;;;2.97;;
54555;SDS011;57291;37.520;15.106;2023-04-03T04:51:17;6.70;;;2.63;;
54555;SDS011;57291;37.520;15.106;2023-04-03T04:53:45;5.80;;;2.80;;
54555;SDS011;57291;37.520;15.106;2023-04-03T04:56:15;5.65;;;2.95;;
54555;SDS011;57291;37.520;15.106;2023-04-03T04:58:42;6.90;;;2.90;;
54555;SDS011;57291;37.520;15.106;2023-04-03T05:01:10;6.07;;;3.25;;
54555;SDS011;57291;37.520;15.106;2023-04-03T05:03:47;7.65;;;3.72;;
54555;SDS011;57291;37.520;15.106;2023-04-03T05:06:15;10.10;;;5.70;;
54555;SDS011;57291;37.520;15.106;2023-04-03T05:08:42;10.43;;;4.90;;
54555;SDS011;57291;37.520;15.106;2023-04-03T05:11:10;10.18;;;6.20;;
54555;SDS011;57291;37.520;15.106;2023-04-03T05:13:39;14.00;;;6.43;;
54555;SDS011;57291;37.520;15.106;2023-04-03T05:16:06;12.93;;;6.65;;
54555;SDS011;57291;37.520;15.106;2023-04-03T05:18:34;12.27;;;6.35;;
54555;SDS011;57291;37.520;15.106;2023-04-03T05:21:06;10.27;;;6.50;;
54555;SDS011;57291;37.520;15.106;2023-04-03T05:23:34;11.43;;;6.80;;
54555;SDS011;57291;37.520;15.106;2023-04-03T05:26:03;9.52;;;5.10;;
54555;SDS011;57291;37.520;15.106;2023-04-03T05:28:31;10.88;;;4.80;;
54555;SDS011;57291;37.520;15.106;2023-04-03T05:30:58;8.60;;;4.45;;
54555;SDS011;57291;37.520;15.106;2023-04-03T05:33:32;7.82;;;4.22;;
54555;SDS011;57291;37.520;15.106;2023-04-03T05:36:04;9.70;;;5.45;;
54555;SDS011;57291;37.520;15.106;2023-04-03T05:38:35;8.15;;;4.07;;
54555;SDS011;57291;37.520;15.106;2023-04-03T05:41:03;7.25;;;4.10;;
54555;SDS011;57291;37.520;15.106;2023-04-03T05:43:30;7.25;;;3.88;;
54555;SDS011;57291;37.520;15.106;2023-04-03T05:45:57;6.22;;;3.67;;
54555;SDS011;57291;37.520;15.106;2023-04-03T05:48:26;5.25;;;3.20;;
54555;SDS011;57291;37.520;15.106;2023-04-03T05:50:54;7.88;;;3.60;;
54555;SDS011;57291;37.520;15.106;2023-04-03T05:53:27;7.50;;;3.38;;
54555;SDS011;57291;37.520;15.106;2023-04-03T05:55:59;6.13;;;2.88;;
54555;SDS011;57291;37.520;15.106;2023-04-03T05:58:30;5.47;;;2.60;;
54555;SDS011;57291;37.520;15.106;2023-04-03T06:00:57;4.82;;;2.60;;
54555;SDS011;57291;37.520;15.106;2023-04-03T06:03:25;5.07;;;2.38;;
54555;SDS011;57291;37.520;15.106;2023-04-03T06:05:52;5.88;;;3.15;;
54555;SDS011;57291;37.520;15.106;2023-04-03T06:08:20;4.10;;;2.25;;
54555;SDS011;57291;37.520;15.106;2023-04-03T06:10:47;7.88;;;2.95;;
54555;SDS011;57291;37.520;15.106;2023-04-03T06:13:14;3.88;;;2.20;;
54555;SDS011;57291;37.520;15.106;2023-04-03T06:15:41;5.13;;;2.53;;
54555;SDS011;57291;37.520;15.106;2023-04-03T06:18:08;6.85;;;2.72;;
54555;SDS011;57291;37.520;15.106;2023-04-03T06:20:36;6.45;;;2.70;;
54555;SDS011;57291;37.520;15.106;2023-04-03T06:23:04;4.20;;;2.10;;
54555;SDS011;57291;37.520;15.106;2023-04-03T06:25:34;2.70;;;1.95;;
54555;SDS011;57291;37.520;15.106;2023-04-03T06:28:04;4.10;;;2.30;;
54555;SDS011;57291;37.520;15.106;2023-04-03T06:30:32;4.82;;;2.25;;
54555;SDS011;57291;37.520;15.106;2023-04-03T06:32:59;4.97;;;2.25;;
54555;SDS011;57291;37.520;15.106;2023-04-03T06:35:26;4.18;;;1.80;;
54555;SDS011;57291;37.520;15.106;2023-04-03T06:37:55;3.88;;;2.08;;
54555;SDS011;57291;37.520;15.106;2023-04-03T06:40:23;4.88;;;1.90;;
54555;SDS011;57291;37.520;15.106;2023-04-03T06:42:52;4.85;;;1.75;;
54555;SDS011;57291;37.520;15.106;2023-04-03T06:45:19;3.17;;;1.90;;
54555;SDS011;57291;37.520;15.106;2023-04-03T06:47:48;4.53;;;1.95;;
54555;SDS011;57291;37.520;15.106;2023-04-03T06:50:15;5.43;;;2.28;;
54555;SDS011;57291;37.520;15.106;2023-04-03T06:52:42;7.88;;;2.30;;
54555;SDS011;57291;37.520;15.106;2023-04-03T06:55:09;5.57;;;2.63;;
54555;SDS011;57291;37.520;15.106;2023-04-03T06:57:37;6.88;;;3.40;;
54555;SDS011;57291;37.520;15.106;2023-04-03T07:00:05;6.75;;;3.28;;
54555;SDS011;57291;37.520;15.106;2023-04-03T07:02:34;7.60;;;3.60;;
54555;SDS011;57291;37.520;15.106;2023-04-03T07:05:02;11.38;;;3.92;;
54555;SDS011;57291;37.520;15.106;2023-04-03T07:07:29;7.93;;;3.78;;
54555;SDS011;57291;37.520;15.106;2023-04-03T07:09:57;7.10;;;3.20;;
54555;SDS011;57291;37.520;15.106;2023-04-03T07:12:25;5.65;;;2.70;;
54555;SDS011;57291;37.520;15.106;2023-04-03T07:14:53;5.25;;;2.95;;
54555;SDS011;57291;37.520;15.106;2023-04-03T07:17:20;4.53;;;2.53;;
54555;SDS011;57291;37.520;15.106;2023-04-03T07:19:47;7.40;;;2.90;;
54555;SDS011;57291;37.520;15.106;2023-04-03T07:22:14;4.40;;;2.63;;
54555;SDS011;57291;37.520;15.106;2023-04-03T07:24:41;5.65;;;2.88;;
54555;SDS011;57291;37.520;15.106;2023-04-03T07:27:09;6.28;;;1.55;;
54555;SDS011;57291;37.520;15.106;2023-04-03T07:29:36;1.25;;;0.80;;
54555;SDS011;57291;37.520;15.106;2023-04-03T07:32:03;2.05;;;0.90;;
54555;SDS011;57291;37.520;15.106;2023-04-03T07:34:32;3.03;;;0.80;;
54555;SDS011;57291;37.520;15.106;2023-04-03T07:36:59;2.05;;;0.73;;
54555;SDS011;57291;37.520;15.106;2023-04-03T07:39:27;2.30;;;0.90;;
54555;SDS011;57291;37.520;15.106;2023-04-03T07:41:55;1.90;;;0.80;;
54555;SDS011;57291;37.520;15.106;2023-04-03T07:44:22;3.47;;;0.90;;
54555;SDS011;57291;37.520;15.106;2023-04-03T07:46:50;4.10;;;1.05;;
54555;SDS011;57291;37.520;15.106;2023-04-03T07:49:17;2.47;;;0.77;;
54555;SDS011;57291;37.520;15.106;2023-04-03T07:51:45;2.63;;;0.88;;
54555;SDS011;57291;37.520;15.106;2023-04-03T07:54:12;1.98;;;0.90;;
54555;SDS011;57291;37.520;15.106;2023-04-03T07:56:39;1.30;;;0.90;;
54555;SDS011;57291;37.520;15.106;2023-04-03T07:59:06;2.33;;;0.68;;
54555;SDS011;57291;37.520;15.106;2023-04-03T08:01:34;0.80;;;0.60;;
54555;SDS011;57291;37.520;15.106;2023-04-03T08:04:01;1.35;;;0.70;;
54555;SDS011;57291;37.520;15.106;2023-04-03T08:06:30;3.42;;;0.90;;
54555;SDS011;57291;37.520;15.106;2023-04-03T08:09:11;1.58;;;0.82;;
54555;SDS011;57291;37.520;15.106;2023-04-03T08:11:39;2.65;;;1.23;;
54555;SDS011;57291;37.520;15.106;2023-04-03T08:14:06;1.90;;;1.23;;
54555;SDS011;57291;37.520;15.106;2023-04-03T08:16:33;5.35;;;1.60;;
54555;SDS011;57291;37.520;15.106;2023-04-03T08:19:01;4.75;;;1.40;;
54555;SDS011;57291;37.520;15.106;2023-04-03T08:21:32;2.53;;;1.40;;
54555;SDS011;57291;37.520;15.106;2023-04-03T08:24:00;2.40;;;1.20;;
54555;SDS011;57291;37.520;15.106;2023-04-03T08:26:27;3.28;;;1.30;;
54555;SDS011;57291;37.520;15.106;2023-04-03T08:28:54;1.88;;;1.13;;
54555;SDS011;57291;37.520;15.106;2023-04-03T08:31:22;3.65;;;1.27;;
54555;SDS011;57291;37.520;15.106;2023-04-03T08:33:49;3.83;;;1.45;;
54555;SDS011;57291;37.520;15.106;2023-04-03T08:36:23;4.18;;;1.58;;
54555;SDS011;57291;37.520;15.106;2023-04-03T08:38:53;4.65;;;1.95;;
54555;SDS011;57291;37.520;15.106;2023-04-03T08:49:45;5.10;;;1.40;;
54555;SDS011;57291;37.520;15.106;2023-04-03T08:52:42;2.88;;;1.25;;
54555;SDS011;57291;37.520;15.106;2023-04-03T09:00:43;3.35;;;1.60;;
54555;SDS011;57291;37.520;15.106;2023-04-03T09:03:13;3.05;;;1.27;;
54555;SDS011;57291;37.520;15.106;2023-04-03T09:08:37;2.22;;;1.52;;
54555;SDS011;57291;37.520;15.106;2023-04-03T09:11:23;3.88;;;1.35;;
54555;SDS011;57291;37.520;15.106;2023-04-03T09:16:59;2.78;;;1.45;;
54555;SDS011;57291;37.520;15.106;2023-04-03T09:24:45;2.97;;;1.38;;
54555;SDS011;57291;37.520;15.106;2023-04-03T09:27:16;4.93;;;1.85;;
54555;SDS011;57291;37.520;15.106;2023-04-03T09:29:43;3.33;;;1.38;;
54555;SDS011;57291;37.520;15.106;2023-04-03T09:32:27;4.53;;;1.98;;
54555;SDS011;57291;37.520;15.106;2023-04-03T09:35:02;4.05;;;1.73;;
54555;SDS011;57291;37.520;15.106;2023-04-03T09:37:51;2.72;;;1.48;;
54555;SDS011;57291;37.520;15.106;2023-04-03T09:42:59;3.67;;;1.90;;
54555;SDS011;57291;37.520;15.106;2023-04-03T09:45:47;4.40;;;1.50;;
54555;SDS011;57291;37.520;15.106;2023-04-03T09:48:17;3.97;;;1.65;;
54555;SDS011;57291;37.520;15.106;2023-04-03T09:53:27;3.50;;;1.52;;
54555;SDS011;57291;37.520;15.106;2023-04-03T09:56:03;6.20;;;1.80;;
54555;SDS011;57291;37.520;15.106;2023-04-03T10:01:32;2.13;;;1.20;;
54555;SDS011;57291;37.520;15.106;2023-04-03T10:06:41;3.10;;;1.58;;
54555;SDS011;57291;37.520;15.106;2023-04-03T10:09:28;3.40;;;1.45;;
54555;SDS011;57291;37.520;15.106;2023-04-03T10:11:57;3.47;;;1.50;;
54555;SDS011;57291;37.520;15.106;2023-04-03T10:14:28;3.97;;;1.35;;
54555;SDS011;57291;37.520;15.106;2023-04-03T10:16:59;2.30;;;1.27;;
54555;SDS011;57291;37.520;15.106;2023-04-03T10:19:47;2.35;;;1.20;;
54555;SDS011;57291;37.520;15.106;2023-04-03T10:22:30;3.85;;;1.38;;
54555;SDS011;57291;37.520;15.106;2023-04-03T10:25:15;2.38;;;1.40;;
54555;SDS011;57291;37.520;15.106;2023-04-03T10:28:01;2.95;;;1.23;;
54555;SDS011;57291;37.520;15.106;2023-04-03T10:35:58;2.53;;;1.10;;
54555;SDS011;57291;37.520;15.106;2023-04-03T10:44:04;0.95;;;0.80;;
54555;SDS011;57291;37.520;15.106;2023-04-03T10:46:53;2.55;;;1.00;;
54555;SDS011;57291;37.520;15.106;2023-04-03T10:57:33;1.77;;;1.02;;
54555;SDS011;57291;37.520;15.106;2023-04-03T11:00:03;8.23;;;1.95;;
54555;SDS011;57291;37.520;15.106;2023-04-03T11:02:36;4.93;;;1.48;;
54555;SDS011;57291;37.520;15.106;2023-04-03T11:07:52;5.68;;;2.70;;
54555;SDS011;57291;37.520;15.106;2023-04-03T11:10:26;6.95;;;2.92;;
54555;SDS011;57291;37.520;15.106;2023-04-03T11:13:06;5.57;;;3.35;;
54555;SDS011;57291;37.520;15.106;2023-04-03T11:15:42;4.93;;;2.45;;
54555;SDS011;57291;37.520;15.106;2023-04-03T11:21:03;4.78;;;2.47;;
54555;SDS011;57291;37.520;15.106;2023-04-03T11:23:39;4.72;;;2.40;;
54555;SDS011;57291;37.520;15.106;2023-04-03T11:26:19;3.30;;;1.73;;
54555;SDS011;57291;37.520;15.106;2023-04-03T11:28:58;5.40;;;2.00;;
54555;SDS011;57291;37.520;15.106;2023-04-03T11:34:12;6.55;;;2.50;;
54555;SDS011;57291;37.520;15.106;2023-04-03T11:36:49;5.03;;;2.03;;
54555;SDS011;57291;37.520;15.106;2023-04-03T11:45:15;2.75;;;1.48;;
54555;SDS011;57291;37.520;15.106;2023-04-03T11:48:03;4.65;;;1.70;;
54555;SDS011;57291;37.520;15.106;2023-04-03T11:50:50;3.03;;;1.42;;
54555;SDS011;57291;37.520;15.106;2023-04-03T12:04:16;7.38;;;2.10;;
54555;SDS011;57291;37.520;15.106;2023-04-03T12:09:54;5.07;;;1.30;;
54555;SDS011;57291;37.520;15.106;2023-04-03T12:15:23;4.05;;;1.15;;
54555;SDS011;57291;37.520;15.106;2023-04-03T12:21:11;2.33;;;1.33;;
54555;SDS011;57291;37.520;15.106;2023-04-03T12:32:13;1.45;;;0.75;;
54555;SDS011;57291;37.520;15.106;2023-04-03T12:37:48;2.33;;;1.17;;
54555;SDS011;57291;37.520;15.106;2023-04-03T12:45:49;3.60;;;1.30;;
54555;SDS011;57291;37.520;15.106;2023-04-03T12:48:37;1.80;;;0.90;;
54555;SDS011;57291;37.520;15.106;2023-04-03T12:51:18;1.63;;;0.70;;
54555;SDS011;57291;37.520;15.106;2023-04-03T12:53:51;2.38;;;1.35;;
54555;SDS011;57291;37.520;15.106;2023-04-03T12:56:26;4.47;;;1.70;;
54555;SDS011;57291;37.520;15.106;2023-04-03T12:58:54;2.45;;;1.20;;
54555;SDS011;57291;37.520;15.106;2023-04-03T13:01:24;2.90;;;1.30;;
54555;SDS011;57291;37.520;15.106;2023-04-03T13:03:56;4.82;;;0.82;;
54555;SDS011;57291;37.520;15.106;2023-04-03T13:06:30;2.10;;;0.88;;
54555;SDS011;57291;37.520;15.106;2023-04-03T13:09:04;3.50;;;0.80;;
54555;SDS011;57291;37.520;15.106;2023-04-03T13:11:36;9.88;;;1.63;;
54555;SDS011;57291;37.520;15.106;2023-04-03T13:14:21;6.60;;;1.13;;
54555;SDS011;57291;37.520;15.106;2023-04-03T13:16:52;4.32;;;0.90;;
54555;SDS011;57291;37.520;15.106;2023-04-03T13:19:22;1.75;;;0.70;;
54555;SDS011;57291;37.520;15.106;2023-04-03T13:22:06;2.55;;;0.70;;
54555;SDS011;57291;37.520;15.106;2023-04-03T13:24:49;1.73;;;0.70;;
54555;SDS011;57291;37.520;15.106;2023-04-03T13:27:18;1.55;;;0.70;;
54555;SDS011;57291;37.520;15.106;2023-04-03T13:29:49;1.05;;;0.60;;
54555;SDS011;57291;37.520;15.106;2023-04-03T13:32:20;1.88;;;0.68;;
54555;SDS011;57291;37.520;15.106;2023-04-03T13:34:50;1.50;;;0.60;;
54555;SDS011;57291;37.520;15.106;2023-04-03T13:37:24;2.55;;;0.60;;
54555;SDS011;57291;37.520;15.106;2023-04-03T13:42:26;1.40;;;0.70;;
54555;SDS011;57291;37.520;15.106;2023-04-03T13:51:32;2.03;;;1.45;;
54555;SDS011;57291;37.520;15.106;2023-04-03T13:53:44;1.58;;;0.70;;
54555;SDS011;57291;37.520;15.106;2023-04-03T13:58:54;1.27;;;0.60;;
54555;SDS011;57291;37.520;15.106;2023-04-03T14:01:38;7.85;;;0.75;;
54555;SDS011;57291;37.520;15.106;2023-04-03T14:04:14;7.18;;;0.88;;
54555;SDS011;57291;37.520;15.106;2023-04-03T14:06:45;3.47;;;0.80;;
54555;SDS011;57291;37.520;15.106;2023-04-03T14:09:15;2.78;;;0.73;;
54555;SDS011;57291;37.520;15.106;2023-04-03T14:11:45;3.17;;;0.63;;
54555;SDS011;57291;37.520;15.106;2023-04-03T14:14:19;1.15;;;0.65;;
54555;SDS011;57291;37.520;15.106;2023-04-03T14:16:53;1.35;;;0.65;;
54555;SDS011;57291;37.520;15.106;2023-04-03T14:19:30;4.18;;;0.68;;
54555;SDS011;57291;37.520;15.106;2023-04-03T14:21:59;1.48;;;0.43;;
54555;SDS011;57291;37.520;15.106;2023-04-03T14:24:33;2.67;;;0.60;;
54555;SDS011;57291;37.520;15.106;2023-04-03T14:27:01;1.92;;;0.50;;
54555;SDS011;57291;37.520;15.106;2023-04-03T14:29:28;2.65;;;0.57;;
54555;SDS011;57291;37.520;15.106;2023-04-03T14:31:55;1.83;;;0.50;;
54555;SDS011;57291;37.520;15.106;2023-04-03T14:34:39;0.60;;;0.50;;
54555;SDS011;57291;37.520;15.106;2023-04-03T14:37:11;1.48;;;0.60;;
54555;SDS011;57291;37.520;15.106;2023-04-03T14:39:46;2.20;;;0.60;;
54555;SDS011;57291;37.520;15.106;2023-04-03T14:42:15;1.00;;;0.60;;
54555;SDS011;57291;37.520;15.106;2023-04-03T14:44:45;1.95;;;0.80;;
54555;SDS011;57291;37.520;15.106;2023-04-03T14:47:13;1.55;;;0.80;;
54555;SDS011;57291;37.520;15.106;2023-04-03T14:49:56;2.67;;;0.70;;
54555;SDS011;57291;37.520;15.106;2023-04-03T14:52:25;1.40;;;0.63;;
54555;SDS011;57291;37.520;15.106;2023-04-03T14:54:55;1.27;;;0.70;;
54555;SDS011;57291;37.520;15.106;2023-04-03T14:57:23;1.98;;;0.82;;
54555;SDS011;57291;37.520;15.106;2023-04-03T14:59:52;0.90;;;0.47;;
54555;SDS011;57291;37.520;15.106;2023-04-03T15:02:29;1.50;;;0.60;;
54555;SDS011;57291;37.520;15.106;2023-04-03T15:05:02;0.95;;;0.50;;
54555;SDS011;57291;37.520;15.106;2023-04-03T15:07:35;7.03;;;0.73;;
54555;SDS011;57291;37.520;15.106;2023-04-03T15:12:41;0.73;;;0.50;;
54555;SDS011;57291;37.520;15.106;2023-04-03T15:15:09;0.70;;;0.50;;
54555;SDS011;57291;37.520;15.106;2023-04-03T15:17:37;0.77;;;0.43;;
54555;SDS011;57291;37.520;15.106;2023-04-03T15:20:14;1.55;;;0.55;;
54555;SDS011;57291;37.520;15.106;2023-04-03T15:22:43;2.75;;;0.70;;
54555;SDS011;57291;37.520;15.106;2023-04-03T15:25:11;3.75;;;0.88;;
54555;SDS011;57291;37.520;15.106;2023-04-03T15:27:39;2.08;;;0.82;;
54555;SDS011;57291;37.520;15.106;2023-04-03T15:30:10;2.72;;;0.93;;
54555;SDS011;57291;37.520;15.106;2023-04-03T15:32:41;1.42;;;0.75;;
54555;SDS011;57291;37.520;15.106;2023-04-03T15:35:08;3.47;;;0.95;;
54555;SDS011;57291;37.520;15.106;2023-04-03T15:37:36;6.70;;;0.90;;
54555;SDS011;57291;37.520;15.106;2023-04-03T15:40:04;3.97;;;1.00;;
54555;SDS011;57291;37.520;15.106;2023-04-03T15:42:32;2.30;;;0.73;;
54555;SDS011;57291;37.520;15.106;2023-04-03T15:44:59;1.45;;;0.70;;
54555;SDS011;57291;37.520;15.106;2023-04-03T15:47:26;1.40;;;0.70;;
54555;SDS011;57291;37.520;15.106;2023-04-03T15:49:54;2.42;;;0.70;;
54555;SDS011;57291;37.520;15.106;2023-04-03T15:52:22;1.33;;;0.80;;
54555;SDS011;57291;37.520;15.106;2023-04-03T15:54:49;1.77;;;0.80;;
54555;SDS011;57291;37.520;15.106;2023-04-03T15:57:16;1.80;;;1.05;;
54555;SDS011;57291;37.520;15.106;2023-04-03T15:59:44;2.05;;;0.70;;
54555;SDS011;57291;37.520;15.106;2023-04-03T16:02:11;2.92;;;0.93;;
54555;SDS011;57291;37.520;15.106;2023-04-03T16:04:40;2.85;;;0.90;;
54555;SDS011;57291;37.520;15.106;2023-04-03T16:07:07;1.13;;;0.70;;
54555;SDS011;57291;37.520;15.106;2023-04-03T16:09:35;1.70;;;0.70;;
54555;SDS011;57291;37.520;15.106;2023-04-03T16:12:03;3.40;;;0.90;;
54555;SDS011;57291;37.520;15.106;2023-04-03T16:14:30;5.38;;;1.15;;
54555;SDS011;57291;37.520;15.106;2023-04-03T16:16:58;2.10;;;0.82;;
54555;SDS011;57291;37.520;15.106;2023-04-03T16:19:26;2.42;;;0.80;;
54555;SDS011;57291;37.520;15.106;2023-04-03T16:21:54;1.83;;;0.88;;
54555;SDS011;57291;37.520;15.106;2023-04-03T16:24:22;1.58;;;1.02;;
54555;SDS011;57291;37.520;15.106;2023-04-03T16:26:49;3.17;;;0.98;;
54555;SDS011;57291;37.520;15.106;2023-04-03T16:29:16;1.13;;;0.80;;
54555;SDS011;57291;37.520;15.106;2023-04-03T16:31:44;1.15;;;0.80;;
54555;SDS011;57291;37.520;15.106;2023-04-03T16:34:11;5.68;;;0.88;;
54555;SDS011;57291;37.520;15.106;2023-04-03T16:36:38;3.17;;;0.70;;
54555;SDS011;57291;37.520;15.106;2023-04-03T16:39:06;2.55;;;0.90;;
54555;SDS011;57291;37.520;15.106;2023-04-03T16:41:36;5.00;;;1.00;;
54555;SDS011;57291;37.520;15.106;2023-04-03T16:44:03;2.15;;;0.75;;
54555;SDS011;57291;37.520;15.106;2023-04-03T16:46:30;1.73;;;0.75;;
54555;SDS011;57291;37.520;15.106;2023-04-03T16:48:57;2.17;;;0.77;;
54555;SDS011;57291;37.520;15.106;2023-04-03T16:51:24;2.85;;;0.70;;
54555;SDS011;57291;37.520;15.106;2023-04-03T16:53:51;3.40;;;0.90;;
54555;SDS011;57291;37.520;15.106;2023-04-03T16:56:19;3.03;;;0.80;;
54555;SDS011;57291;37.520;15.106;2023-04-03T16:58:46;3.40;;;0.75;;